createdAt,value
2022-12-16T00:04:23.631Z,-8.21
2022-12-16T00:09:27.781Z,-8.04
2022-12-16T00:14:31.944Z,-8.11
2022-12-16T00:19:36.139Z,-8.22
2022-12-16T00:24:40.293Z,-8.34
2022-12-16T00:29:44.469Z,-8.36
2022-12-16T00:34:48.639Z,-8.23
2022-12-16T00:39:52.832Z,-8.23
2022-12-16T00:44:57.004Z,-8.35
2022-12-16T00:50:01.175Z,-8.20
2022-12-16T00:55:05.545Z,-8.24
2022-12-16T01:00:09.508Z,-8.35
2022-12-16T01:05:13.685Z,-8.42
2022-12-16T01:10:17.881Z,-8.49
2022-12-16T01:15:22.354Z,-8.43
2022-12-16T01:20:26.167Z,-8.39
2022-12-16T01:25:30.368Z,-8.09
2022-12-16T01:30:34.544Z,-8.08
2022-12-16T01:35:54.826Z,-8.08
2022-12-16T01:40:42.892Z,-7.99
2022-12-16T01:45:47.086Z,-7.90
2022-12-16T01:50:51.237Z,-8.11
2022-12-16T01:55:55.419Z,-8.21
2022-12-16T02:00:59.640Z,-8.23
2022-12-16T02:06:03.704Z,-8.25
2022-12-16T02:11:07.871Z,-8.30
2022-12-16T02:16:16.627Z,-8.38
2022-12-16T02:21:16.279Z,-8.49
2022-12-16T02:26:20.432Z,-8.56
2022-12-16T02:31:26.829Z,-8.65
2022-12-16T02:36:28.740Z,-8.74
2022-12-16T02:41:32.950Z,-8.80
2022-12-16T02:46:37.090Z,-8.82
2022-12-16T02:51:41.290Z,-8.78
2022-12-16T02:56:45.428Z,-8.84
2022-12-16T03:01:47.838Z,-8.88
2022-12-16T03:06:51.911Z,-8.78
2022-12-16T03:11:56.056Z,-8.74
2022-12-16T03:17:00.336Z,-8.70
2022-12-16T03:22:04.376Z,-8.66
2022-12-16T03:27:08.570Z,-8.73
2022-12-16T03:32:10.862Z,-8.85
2022-12-16T03:37:15.043Z,-8.97
2022-12-16T03:42:19.205Z,-9.03
2022-12-16T03:47:24.169Z,-9.08
2022-12-16T03:52:27.549Z,-9.10
2022-12-16T03:57:31.706Z,-9.11
2022-12-16T04:02:36.021Z,-9.16
2022-12-16T04:07:40.057Z,-9.15
2022-12-16T04:12:44.212Z,-8.86
2022-12-16T04:17:48.402Z,-8.83
2022-12-16T04:22:52.559Z,-8.98
2022-12-16T04:27:56.715Z,-9.09
2022-12-16T04:33:00.893Z,-9.15
2022-12-16T04:38:05.072Z,-9.20
2022-12-16T04:43:09.267Z,-9.17
2022-12-16T04:48:13.439Z,-9.12
2022-12-16T04:53:17.581Z,-9.06
2022-12-16T04:58:21.754Z,-9.03
2022-12-16T05:03:26.009Z,-8.98
2022-12-16T05:08:30.145Z,-9.03
2022-12-16T05:13:34.664Z,-9.10
2022-12-16T05:18:38.486Z,-9.15
2022-12-16T05:23:42.617Z,-9.19
2022-12-16T05:28:46.783Z,-9.15
2022-12-16T05:33:50.974Z,-9.16
2022-12-16T05:38:55.164Z,-9.14
2022-12-16T05:43:59.311Z,-9.16
2022-12-16T05:49:03.453Z,-9.17
2022-12-16T05:54:07.632Z,-9.27
2022-12-16T05:59:11.829Z,-9.36
2022-12-16T06:04:17.733Z,-9.35
2022-12-16T06:09:20.166Z,-9.35
2022-12-16T06:14:24.325Z,-9.38
2022-12-16T06:19:28.529Z,-9.40
2022-12-16T06:24:32.695Z,-9.44
2022-12-16T06:29:36.832Z,-9.47
2022-12-16T06:34:41.023Z,-9.50
2022-12-16T06:39:48.733Z,-9.55
2022-12-16T06:44:49.355Z,-9.57
2022-12-16T06:49:53.556Z,-9.45
2022-12-16T06:54:57.698Z,-9.12
2022-12-16T07:00:01.927Z,-9.09
2022-12-16T07:05:06.705Z,-9.09
2022-12-16T07:10:10.263Z,-9.20
2022-12-16T07:15:14.397Z,-9.26
2022-12-16T07:20:18.585Z,-9.31
2022-12-16T07:25:22.747Z,-9.35
2022-12-16T07:30:26.914Z,-9.37
2022-12-16T07:35:31.094Z,-9.40
2022-12-16T07:40:35.260Z,-9.44
2022-12-16T07:45:44.901Z,-9.42
2022-12-16T07:50:43.640Z,-9.32
2022-12-16T07:55:47.790Z,-9.22
2022-12-16T08:00:51.970Z,-9.03
2022-12-16T08:05:56.110Z,-9.00
2022-12-16T08:11:00.288Z,-9.05
2022-12-16T08:16:04.445Z,-9.05
2022-12-16T08:21:08.610Z,-8.90
2022-12-16T08:26:12.817Z,-8.83
2022-12-16T08:31:17.110Z,-8.77
2022-12-16T08:36:21.165Z,-8.75
2022-12-16T08:41:25.326Z,-8.69
2022-12-16T08:46:29.540Z,-8.58
2022-12-16T08:51:33.681Z,-8.52
2022-12-16T08:56:37.853Z,-8.49
2022-12-16T09:01:40.255Z,-8.46
2022-12-16T09:06:44.311Z,-8.21
2022-12-16T09:11:48.442Z,-8.20
2022-12-16T09:16:52.674Z,-8.13
2022-12-16T09:21:56.786Z,-7.97
2022-12-16T09:27:00.992Z,-7.80
2022-12-16T09:32:05.154Z,-7.57
2022-12-16T09:37:09.292Z,-7.36
2022-12-16T09:42:13.469Z,-7.25
2022-12-16T09:47:17.901Z,-7.25
2022-12-16T09:52:21.836Z,-7.29
2022-12-16T09:57:26.023Z,-7.13
2022-12-16T10:02:30.559Z,-6.89
2022-12-16T10:07:34.359Z,-6.67
2022-12-16T10:12:38.476Z,-6.54
2022-12-16T10:17:42.685Z,-6.35
2022-12-16T10:22:46.842Z,-6.37
2022-12-16T10:27:51.005Z,-6.27
2022-12-16T10:32:55.216Z,-6.09
2022-12-16T10:37:59.337Z,-5.90
2022-12-16T10:43:03.537Z,-5.76
2022-12-16T10:48:07.681Z,-5.60
2022-12-16T10:53:11.893Z,-5.50
2022-12-16T10:58:16.004Z,-5.36
2022-12-16T11:03:20.455Z,-5.21
2022-12-16T11:08:24.350Z,-4.97
2022-12-16T11:13:28.548Z,-4.83
2022-12-16T11:18:32.754Z,-4.66
2022-12-16T11:23:37.305Z,-4.41
2022-12-16T11:28:41.051Z,-4.27
2022-12-16T11:33:45.204Z,-4.07
2022-12-16T11:38:49.395Z,-3.81
2022-12-16T11:43:53.553Z,-3.78
2022-12-16T11:48:57.741Z,-3.59
2022-12-16T11:54:01.869Z,-3.56
2022-12-16T11:59:06.048Z,-3.47
2022-12-16T12:04:10.274Z,-3.37
2022-12-16T12:09:14.403Z,-3.34
2022-12-16T12:14:18.542Z,-3.21
2022-12-16T12:19:22.722Z,-3.07
2022-12-16T12:24:26.924Z,-2.90
2022-12-16T12:29:31.078Z,-2.75
2022-12-16T12:34:35.206Z,-2.63
2022-12-16T12:39:39.401Z,-2.49
2022-12-16T12:44:49.042Z,-2.17
2022-12-16T12:49:47.730Z,-2.11
2022-12-16T12:54:51.909Z,-1.99
2022-12-16T13:00:00.317Z,-2.03
2022-12-16T13:05:00.234Z,-1.76
2022-12-16T13:10:04.423Z,-1.72
2022-12-16T13:15:08.575Z,-1.79
2022-12-16T13:20:12.901Z,-1.63
2022-12-16T13:25:22.272Z,-1.60
2022-12-16T13:30:21.051Z,-1.49
2022-12-16T13:35:25.234Z,-1.39
2022-12-16T13:40:29.417Z,-1.39
2022-12-16T13:45:33.670Z,-1.30
2022-12-16T13:50:37.764Z,-1.32
2022-12-16T13:55:41.923Z,-1.41
2022-12-16T14:00:46.096Z,-1.40
2022-12-16T14:05:50.218Z,-1.35
2022-12-16T14:10:54.420Z,-1.35
2022-12-16T14:15:58.571Z,-1.26
2022-12-16T14:21:02.732Z,-1.07
2022-12-16T14:26:06.880Z,-1.02
2022-12-16T14:31:09.156Z,-1.17
2022-12-16T14:36:13.331Z,-1.26
2022-12-16T14:41:17.478Z,-1.14
2022-12-16T14:46:21.784Z,-1.37
2022-12-16T14:51:25.868Z,-1.48
2022-12-16T14:56:29.980Z,-1.71
2022-12-16T15:01:34.415Z,-1.89
2022-12-16T15:06:38.360Z,-2.01
2022-12-16T15:11:42.528Z,-2.20
2022-12-16T15:16:46.750Z,-2.37
2022-12-16T15:21:50.854Z,-2.49
2022-12-16T15:26:55.019Z,-2.66
2022-12-16T15:32:03.361Z,-2.77
2022-12-16T15:37:03.383Z,-2.91
2022-12-16T15:42:07.519Z,-3.03
2022-12-16T15:47:11.694Z,-3.11
2022-12-16T15:52:15.916Z,-3.20
2022-12-16T15:57:20.007Z,-3.33
2022-12-16T16:02:24.439Z,-3.41
2022-12-16T16:07:28.358Z,-3.51
2022-12-16T16:12:32.525Z,-3.70
2022-12-16T16:17:36.686Z,-3.75
2022-12-16T16:22:40.860Z,-3.91
2022-12-16T16:27:45.050Z,-4.00
2022-12-16T16:32:49.196Z,-4.06
2022-12-16T16:37:53.365Z,-4.22
2022-12-16T16:42:57.501Z,-4.41
2022-12-16T16:48:01.691Z,-4.57
2022-12-16T16:53:05.890Z,-4.63
2022-12-16T16:58:10.020Z,-4.55
2022-12-16T17:03:14.570Z,-4.67
2022-12-16T17:08:18.362Z,-4.82
2022-12-16T17:13:22.521Z,-4.89
2022-12-16T17:18:26.708Z,-4.87
2022-12-16T17:23:31.290Z,-4.87
2022-12-16T17:28:35.016Z,-4.96
2022-12-16T17:33:39.204Z,-5.12
2022-12-16T17:38:43.358Z,-5.15
2022-12-16T17:43:47.534Z,-5.16
2022-12-16T17:48:51.732Z,-5.19
2022-12-16T17:54:00.818Z,-5.27
2022-12-16T17:59:00.018Z,-5.39
2022-12-16T18:04:04.333Z,-5.49
2022-12-16T18:09:08.419Z,-5.50
2022-12-16T18:14:12.551Z,-5.41
2022-12-16T18:19:16.720Z,-5.30
2022-12-16T18:24:20.899Z,-4.92
2022-12-16T18:29:25.074Z,-4.57
2022-12-16T18:34:29.238Z,-4.35
2022-12-16T18:39:33.388Z,-4.27
2022-12-16T18:44:37.599Z,-4.13
2022-12-16T18:49:41.726Z,-4.09
2022-12-16T18:54:45.903Z,-4.02
2022-12-16T18:59:50.078Z,-4.02
2022-12-16T19:04:54.239Z,-4.12
2022-12-16T19:09:58.419Z,-4.24
2022-12-16T19:15:02.577Z,-4.38
2022-12-16T19:20:06.752Z,-4.33
2022-12-16T19:25:10.893Z,-4.24
2022-12-16T19:30:15.114Z,-4.17
2022-12-16T19:35:19.257Z,-4.12
2022-12-16T19:40:23.391Z,-4.07
2022-12-16T19:45:27.587Z,-4.06
2022-12-16T19:50:31.719Z,-4.04
2022-12-16T19:55:35.948Z,-4.01
2022-12-16T20:00:38.210Z,-4.00
2022-12-16T20:05:42.369Z,-3.95
2022-12-16T20:10:46.500Z,-3.95
2022-12-16T20:15:51.809Z,-3.93
2022-12-16T20:20:54.877Z,-3.92
2022-12-16T20:25:59.063Z,-3.92
2022-12-16T20:31:01.300Z,-3.93
2022-12-16T20:36:05.498Z,-3.94
2022-12-16T20:41:09.671Z,-3.90
2022-12-16T20:46:13.815Z,-3.91
2022-12-16T20:51:24.248Z,-3.89
2022-12-16T20:56:22.153Z,-3.87
2022-12-16T21:01:26.467Z,-3.89
2022-12-16T21:06:30.491Z,-3.97
2022-12-16T21:11:34.702Z,-4.01
2022-12-16T21:16:38.819Z,-4.04
2022-12-16T21:21:43.006Z,-4.03
2022-12-16T21:26:47.154Z,-4.12
2022-12-16T21:31:51.320Z,-4.16
2022-12-16T21:36:55.995Z,-4.16
2022-12-16T21:41:59.672Z,-4.18
2022-12-16T21:47:03.845Z,-4.19
2022-12-16T21:52:08.028Z,-4.19
2022-12-16T21:57:12.152Z,-4.23
2022-12-16T22:02:16.319Z,-4.25
2022-12-16T22:07:20.486Z,-4.25
2022-12-16T22:12:24.700Z,-4.25
2022-12-16T22:17:28.937Z,-4.23
2022-12-16T22:22:32.994Z,-4.24
2022-12-16T22:32:41.354Z,-4.47
2022-12-16T22:37:45.500Z,-4.60
2022-12-16T22:42:49.658Z,-4.64
2022-12-16T22:47:53.851Z,-4.57
2022-12-16T22:52:58.033Z,-4.49
2022-12-16T22:58:02.187Z,-4.44
2022-12-16T23:03:06.342Z,-4.40
2022-12-16T23:08:10.576Z,-4.37
2022-12-16T23:13:17.147Z,-4.36
2022-12-16T23:18:19.334Z,-4.40
2022-12-16T23:28:27.351Z,-4.46
2022-12-16T23:33:31.366Z,-4.53
2022-12-16T23:38:38.661Z,-4.57
2022-12-16T23:43:44.935Z,-4.65
2022-12-16T23:48:43.873Z,-4.72
2022-12-16T23:53:48.036Z,-4.83
2022-12-16T23:58:52.215Z,-4.87
